MV Metin Dadayli — TCSO5 — position and weather

sailwx.info

Track history (hours):
 
Tides and Currents Weather Stations Pressure Air Temp Water Temp Dewpoint Dewpoint Depression Visibility Wind Speed Wind Dir Waves Ship Positions

MV Metin Dadayli

Last reported at 2018-Jun-18 13:00 UTC. Time now 2018-Jun-18 13:25 UTC.
Position N 36°46' E 014°18'.

Length 92 m; draft 6.9 m.

Type: Cargo ship. MMSI: 271000934.

Date/timePositionNaut miles runAvg speedWind from/ knotsBaromVisibWave heightAir tempDewpointWater temp
2018-Jun-18 13:00N 36°46' E 014°18'611.4
2018-Jun-18 12:30N 36°48' E 014°12'611.9
2018-Jun-18 12:00N 36°51' E 014°05'611.9
2018-Jun-18 11:30N 36°53' E 013°58'612.1
2018-Jun-18 11:01N 36°55' E 013°51'611.6
2018-Jun-18 10:31N 36°59' E 013°45'611.7
2018-Jun-18 10:01N 37°01' E 013°38'611.7
2018-Jun-18 09:30N 37°03' E 013°31'52711.3
2018-Jun-16 10:38N 40°13' E 003°02'210.6
2018-Jun-16 10:25N 40°15' E 002°59'  
2018-Jun-13 08:09N 38°04' W 000°05'312.7
2018-Jun-13 07:57N 38°02' W 000°07'612.6
2018-Jun-13 07:27N 37°57' W 000°11'812.4
2018-Jun-13 06:50N 37°51' W 000°17'412.2
2018-Jun-13 06:30N 37°47' W 000°19'612.3
2018-Jun-13 06:00N 37°42' W 000°23'612.4
2018-Jun-13 05:30N 37°37' W 000°28'612.3
2018-Jun-13 05:00N 37°32' W 000°33'612.7
2018-Jun-13 04:30N 37°28' W 000°39'612.9
2018-Jun-13 04:00N 37°24' W 000°45'712.7
2018-Jun-13 03:29N 37°19' W 000°51'712.6
2018-Jun-13 02:58N 37°15' W 000°57'815.1
2018-Jun-13 02:27N 37°10' W 001°04'610.1
2018-Jun-13 01:54N 37°06' W 001°10'20612.8
2018-Jun-12 09:49N 36°00' W 005°13'515.8
2018-Jun-12 09:30N 35°59' W 005°19'815.2
2018-Jun-12 09:00N 35°57' W 005°28'7 0.2
2018-Jun-10 13:10N 35°58' W 005°37'1 8.2
2018-Jun-10 13:01N 35°58' W 005°35'4 8.5
2018-Jun-10 12:31N 35°59' W 005°30'4 8.3
2018-Jun-10 12:00N 36°01' W 005°25'4 7.8
2018-Jun-10 11:30N 36°01' W 005°20'4 7.7
2018-Jun-10 11:00N 36°01' W 005°16'4 7.5
2018-Jun-10 10:30N 36°02' W 005°11'327 9.8
2018-Jun-09 01:08N 36°50' E 001°31'210.2
2018-Jun-09 00:59N 36°50' E 001°33'5 9.9
2018-Jun-09 00:30N 36°50' E 001°39'510.3
2018-Jun-09 00:00N 36°52' E 001°45'610.7
2018-Jun-08 23:29N 36°53' E 001°52'510.5
2018-Jun-08 22:59N 36°54' E 001°58'510.3
2018-Jun-08 22:30N 36°55' E 002°04'510.1
2018-Jun-08 22:00N 36°56' E 002°10'510.3
2018-Jun-08 21:30N 36°57' E 002°16'510.3
2018-Jun-08 21:00N 36°58' E 002°23'510.5
2018-Jun-08 20:29N 36°59' E 002°30'510.9
2018-Jun-08 20:00N 36°60' E 002°36'611.3
2018-Jun-08 19:30N 37°01' E 002°43'611.3
2018-Jun-08 19:00N 37°01' E 002°50'711.5
2018-Jun-08 18:23N 37°02' E 002°59'511.9
2018-Jun-08 17:57N 37°03' E 003°05'  
Track history (hours):
 
Tides and Currents Weather Stations Pressure Air Temp Water Temp Dewpoint Dewpoint Depression Visibility Wind Speed Wind Dir Waves Ship Positions

MV Metin Dadayli

Last reported at 2018-Jun-18 13:00 UTC. Time now 2018-Jun-18 13:25 UTC.
Position N 36°46' E 014°18'.

Length 92 m; draft 6.9 m.

Type: Cargo ship. MMSI: 271000934.

Date/timePositionNaut miles runAvg speedWind from/ knotsBaromVisibWave heightAir tempDewpointWater temp
2018-Jun-18 13:00N 36°46' E 014°18'611.4
2018-Jun-18 12:30N 36°48' E 014°12'611.9
2018-Jun-18 12:00N 36°51' E 014°05'611.9
2018-Jun-18 11:30N 36°53' E 013°58'612.1
2018-Jun-18 11:01N 36°55' E 013°51'611.6
2018-Jun-18 10:31N 36°59' E 013°45'611.7
2018-Jun-18 10:01N 37°01' E 013°38'611.7
2018-Jun-18 09:30N 37°03' E 013°31'52711.3
2018-Jun-16 10:38N 40°13' E 003°02'210.6
2018-Jun-16 10:25N 40°15' E 002°59'  
2018-Jun-13 08:09N 38°04' W 000°05'312.7
2018-Jun-13 07:57N 38°02' W 000°07'612.6
2018-Jun-13 07:27N 37°57' W 000°11'812.4
2018-Jun-13 06:50N 37°51' W 000°17'412.2
2018-Jun-13 06:30N 37°47' W 000°19'612.3
2018-Jun-13 06:00N 37°42' W 000°23'612.4
2018-Jun-13 05:30N 37°37' W 000°28'612.3
2018-Jun-13 05:00N 37°32' W 000°33'612.7
2018-Jun-13 04:30N 37°28' W 000°39'612.9
2018-Jun-13 04:00N 37°24' W 000°45'712.7
2018-Jun-13 03:29N 37°19' W 000°51'712.6
2018-Jun-13 02:58N 37°15' W 000°57'815.1
2018-Jun-13 02:27N 37°10' W 001°04'610.1
2018-Jun-13 01:54N 37°06' W 001°10'20612.8
2018-Jun-12 09:49N 36°00' W 005°13'515.8
2018-Jun-12 09:30N 35°59' W 005°19'815.2
2018-Jun-12 09:00N 35°57' W 005°28'7 0.2
2018-Jun-10 13:10N 35°58' W 005°37'1 8.2
2018-Jun-10 13:01N 35°58' W 005°35'4 8.5
2018-Jun-10 12:31N 35°59' W 005°30'4 8.3
2018-Jun-10 12:00N 36°01' W 005°25'4 7.8
2018-Jun-10 11:30N 36°01' W 005°20'4 7.7
2018-Jun-10 11:00N 36°01' W 005°16'4 7.5
2018-Jun-10 10:30N 36°02' W 005°11'327 9.8
2018-Jun-09 01:08N 36°50' E 001°31'210.2
2018-Jun-09 00:59N 36°50' E 001°33'5 9.9
2018-Jun-09 00:30N 36°50' E 001°39'510.3
2018-Jun-09 00:00N 36°52' E 001°45'610.7
2018-Jun-08 23:29N 36°53' E 001°52'510.5
2018-Jun-08 22:59N 36°54' E 001°58'510.3
2018-Jun-08 22:30N 36°55' E 002°04'510.1
2018-Jun-08 22:00N 36°56' E 002°10'510.3
2018-Jun-08 21:30N 36°57' E 002°16'510.3
2018-Jun-08 21:00N 36°58' E 002°23'510.5
2018-Jun-08 20:29N 36°59' E 002°30'510.9
2018-Jun-08 20:00N 36°60' E 002°36'611.3
2018-Jun-08 19:30N 37°01' E 002°43'611.3
2018-Jun-08 19:00N 37°01' E 002°50'711.5
2018-Jun-08 18:23N 37°02' E 002°59'511.9
2018-Jun-08 17:57N 37°03' E 003°05'  

Dump ship's entire track history